createdAt,value
2024-03-12T00:02:11.132Z,36.50
2024-03-12T00:03:13.699Z,19.30
2024-03-12T00:04:16.041Z,33.00
2024-03-12T00:05:19.845Z,33.10
2024-03-12T00:06:22.899Z,32.80
2024-03-12T00:07:25.344Z,24.09
2024-03-12T00:08:27.999Z,33.20
2024-03-12T00:09:30.342Z,35.00
2024-03-12T00:10:33.146Z,33.40
2024-03-12T00:11:36.482Z,33.10
2024-03-12T00:12:39.111Z,29.80
2024-03-12T00:13:41.654Z,31.80
2024-03-12T00:14:43.933Z,32.20
2024-03-12T00:15:46.408Z,30.00
2024-03-12T00:16:48.752Z,28.40
2024-03-12T00:17:52.505Z,32.90
2024-03-12T00:18:55.050Z,29.80
2024-03-12T00:19:57.199Z,34.70
2024-03-12T00:20:59.942Z,32.70
2024-03-12T00:22:02.210Z,31.70
2024-03-12T00:23:04.853Z,30.90
2024-03-12T00:24:07.220Z,58.80
2024-03-12T00:25:10.049Z,52.70
2024-03-12T00:26:13.076Z,36.60
2024-03-12T00:27:15.241Z,37.30
2024-03-12T00:28:17.892Z,37.00
2024-03-12T00:29:20.464Z,33.90
2024-03-12T00:30:23.851Z,32.70
2024-03-12T00:31:26.279Z,33.10
2024-03-12T00:32:28.760Z,31.10
2024-03-12T00:33:31.454Z,27.80
2024-03-12T00:34:34.268Z,27.73
2024-03-12T00:35:37.009Z,28.60
2024-03-12T00:36:39.641Z,28.36
2024-03-12T00:37:42.245Z,27.00
2024-03-12T00:38:44.706Z,29.70
2024-03-12T00:39:47.442Z,23.40
2024-03-12T00:40:50.063Z,29.91
2024-03-12T00:41:52.525Z,37.30
2024-03-12T00:42:55.094Z,42.80
2024-03-12T00:43:59.055Z,36.50
2024-03-12T00:45:01.490Z,52.20
2024-03-12T00:46:05.310Z,41.50
2024-03-12T00:47:07.789Z,32.10
2024-03-12T00:48:12.875Z,26.70
2024-03-12T00:49:15.351Z,41.20
2024-03-12T00:50:18.292Z,45.00
2024-03-12T00:51:20.593Z,37.50
2024-03-12T00:52:22.949Z,29.40
2024-03-12T00:53:25.449Z,32.50
2024-03-12T00:54:27.843Z,48.90
2024-03-12T00:55:31.583Z,42.64
2024-03-12T00:56:34.237Z,41.30
2024-03-12T00:57:37.204Z,40.30
2024-03-12T00:58:39.628Z,51.00
2024-03-12T00:59:42.094Z,50.80
2024-03-12T01:00:44.546Z,38.10
2024-03-12T01:01:47.152Z,32.40
2024-03-12T01:02:49.686Z,27.70
2024-03-12T01:03:52.096Z,30.50
2024-03-12T01:04:54.614Z,45.70
2024-03-12T01:05:58.100Z,48.50
2024-03-12T01:07:00.906Z,50.20
2024-03-12T01:08:03.853Z,47.80
2024-03-12T01:09:06.215Z,37.55
2024-03-12T01:10:09.340Z,49.10
2024-03-12T01:11:11.673Z,47.64
2024-03-12T01:12:14.117Z,46.40
2024-03-12T01:13:16.629Z,49.30
2024-03-12T01:14:19.257Z,36.00
2024-03-12T01:15:22.366Z,37.40
2024-03-12T01:16:25.027Z,34.30
2024-03-12T01:17:27.572Z,36.40
2024-03-12T01:18:29.940Z,32.80
2024-03-12T01:19:33.165Z,31.30
2024-03-12T01:20:36.354Z,42.60
2024-03-12T01:21:38.893Z,36.80
2024-03-12T01:22:41.204Z,29.90
2024-03-12T01:23:43.555Z,45.60
2024-03-12T01:24:45.773Z,39.67
2024-03-12T01:25:48.105Z,32.30
2024-03-12T01:26:50.676Z,37.40
2024-03-12T01:27:52.965Z,36.90
2024-03-12T01:28:55.622Z,44.20
2024-03-12T01:29:58.070Z,44.60
2024-03-12T01:31:00.767Z,49.90
2024-03-12T01:32:03.156Z,44.00
2024-03-12T01:33:06.056Z,40.40
2024-03-12T01:34:08.790Z,34.09
2024-03-12T01:35:11.085Z,41.20
2024-03-12T01:36:13.673Z,42.20
2024-03-12T01:37:16.138Z,39.30
2024-03-12T01:38:18.461Z,32.60
2024-03-12T01:39:20.836Z,28.50
2024-03-12T01:40:24.253Z,30.20
2024-03-12T01:41:26.838Z,27.30
2024-03-12T01:42:29.261Z,25.60
2024-03-12T01:43:31.648Z,9.10
2024-03-12T01:44:34.823Z,25.50
2024-03-12T01:45:37.345Z,23.90
2024-03-12T01:46:40.305Z,25.50
2024-03-12T01:47:42.694Z,26.10
2024-03-12T01:48:45.232Z,14.70
2024-03-12T01:49:48.255Z,33.50
2024-03-12T01:50:51.067Z,31.90
2024-03-12T01:51:53.313Z,31.40
2024-03-12T01:54:08.481Z,30.40
2024-03-12T01:55:14.789Z,29.90
2024-03-12T01:56:17.396Z,26.20
2024-03-12T01:57:19.859Z,27.20
2024-03-12T01:58:22.358Z,35.20
2024-03-12T01:59:25.003Z,34.20
2024-03-12T02:00:27.603Z,32.10
2024-03-12T02:01:29.914Z,33.50
2024-03-12T02:02:32.598Z,28.70
2024-03-12T02:03:35.153Z,30.00
2024-03-12T02:04:37.689Z,30.36
2024-03-12T02:05:40.561Z,31.10
2024-03-12T02:06:43.375Z,30.80
2024-03-12T02:08:58.256Z,31.20
2024-03-12T02:10:01.064Z,27.10
2024-03-12T02:11:03.805Z,37.00
2024-03-12T02:12:06.659Z,24.60
2024-03-12T02:13:09.295Z,25.10
2024-03-12T02:14:11.996Z,32.00
2024-03-12T02:15:15.224Z,31.80
2024-03-12T02:16:17.774Z,38.20
2024-03-12T02:17:20.417Z,39.60
2024-03-12T02:18:22.800Z,28.60
2024-03-12T02:19:25.195Z,32.60
2024-03-12T02:20:27.561Z,30.30
2024-03-12T02:21:29.876Z,29.90
2024-03-12T02:22:32.334Z,28.60
2024-03-12T02:24:45.202Z,27.10
2024-03-12T02:25:47.706Z,18.30
2024-03-12T02:26:50.185Z,27.40
2024-03-12T02:27:53.649Z,27.30
2024-03-12T02:28:56.756Z,28.40
2024-03-12T02:29:59.538Z,34.50
2024-03-12T02:31:02.105Z,31.30
2024-03-12T02:32:04.952Z,25.50
2024-03-12T02:33:07.668Z,34.50
2024-03-12T02:34:10.114Z,28.90
2024-03-12T02:35:13.063Z,26.30
2024-03-12T02:36:15.535Z,26.27
2024-03-12T02:37:18.405Z,29.80
2024-03-12T02:38:20.976Z,27.90
2024-03-12T02:39:23.374Z,27.30
2024-03-12T02:40:25.994Z,28.60
2024-03-12T02:41:28.469Z,25.90
2024-03-12T02:42:30.755Z,26.60
2024-03-12T02:43:33.202Z,29.90
2024-03-12T02:44:35.857Z,27.00
2024-03-12T02:45:38.254Z,29.40
2024-03-12T02:46:40.892Z,27.70
2024-03-12T02:47:43.492Z,33.50
2024-03-12T02:48:46.057Z,29.10
2024-03-12T02:49:48.592Z,28.40
2024-03-12T02:50:51.366Z,29.00
2024-03-12T02:51:53.748Z,25.70
2024-03-12T02:52:56.293Z,30.90
2024-03-12T02:53:58.658Z,25.80
2024-03-12T02:55:01.256Z,22.70
2024-03-12T02:56:05.022Z,29.45
2024-03-12T02:57:07.804Z,26.80
2024-03-12T02:58:10.355Z,28.70
2024-03-12T02:59:12.820Z,27.90
2024-03-12T03:00:16.588Z,28.40
2024-03-12T03:01:19.186Z,29.30
2024-03-12T03:02:21.649Z,25.80
2024-03-12T03:03:24.124Z,29.10
2024-03-12T03:04:26.369Z,28.50
2024-03-12T03:05:29.131Z,27.70
2024-03-12T03:06:31.641Z,26.60
2024-03-12T03:07:34.995Z,23.70
2024-03-12T03:08:37.460Z,26.80
2024-03-12T03:09:39.873Z,26.30
2024-03-12T03:10:42.656Z,29.20
2024-03-12T03:11:46.184Z,28.40
2024-03-12T03:12:48.898Z,26.70
2024-03-12T03:13:51.126Z,26.50
2024-03-12T03:14:53.599Z,26.50
2024-03-12T03:15:55.997Z,27.90
2024-03-12T03:16:58.925Z,25.82
2024-03-12T03:18:01.427Z,30.10
2024-03-12T03:19:03.813Z,20.10
2024-03-12T03:20:07.818Z,26.70
2024-03-12T03:21:10.167Z,31.10
2024-03-12T03:22:12.815Z,26.50
2024-03-12T03:23:15.037Z,28.40
2024-03-12T03:24:17.609Z,28.20
2024-03-12T03:25:22.830Z,27.70
2024-03-12T03:26:25.399Z,25.00
2024-03-12T03:27:27.911Z,24.50
2024-03-12T03:28:30.227Z,29.10
2024-03-12T03:29:34.616Z,27.60
2024-03-12T03:30:37.220Z,26.90
2024-03-12T03:31:39.599Z,28.80
2024-03-12T03:32:42.201Z,27.30
2024-03-12T03:33:45.000Z,29.20
2024-03-12T03:34:48.710Z,26.73
2024-03-12T03:35:51.294Z,26.80
2024-03-12T03:36:53.834Z,26.90
2024-03-12T03:37:56.296Z,26.10
2024-03-12T03:38:58.673Z,24.30
2024-03-12T03:40:04.096Z,28.50
2024-03-12T03:41:07.587Z,24.30
2024-03-12T03:42:10.093Z,28.40
2024-03-12T03:43:12.869Z,28.60
2024-03-12T03:44:15.385Z,28.27
2024-03-12T03:45:18.162Z,26.00
2024-03-12T03:46:20.795Z,26.45
2024-03-12T03:47:23.129Z,25.80
2024-03-12T03:48:25.419Z,24.40
2024-03-12T03:49:27.917Z,26.90
2024-03-12T03:50:30.522Z,11.80
2024-03-12T03:51:33.070Z,41.10
2024-03-12T03:52:35.519Z,33.60
2024-03-12T03:53:38.046Z,38.00
2024-03-12T03:54:40.518Z,47.00
2024-03-12T03:55:42.929Z,39.90
2024-03-12T03:56:45.648Z,29.50
2024-03-12T03:57:48.800Z,34.80
2024-03-12T03:58:51.248Z,30.50
2024-03-12T03:59:53.697Z,32.90
2024-03-12T04:00:56.227Z,38.00
2024-03-12T04:01:58.760Z,33.60
2024-03-12T04:03:01.102Z,28.90
2024-03-12T04:04:04.386Z,37.60
2024-03-12T04:05:08.167Z,36.20
2024-03-12T04:06:12.271Z,54.40
2024-03-12T04:07:14.833Z,57.60
2024-03-12T04:08:17.319Z,52.00
2024-03-12T04:09:19.731Z,46.20
2024-03-12T04:10:22.140Z,36.50
2024-03-12T04:11:24.694Z,29.40
2024-03-12T04:12:28.695Z,33.10
2024-03-12T04:13:31.790Z,29.70
2024-03-12T04:14:34.447Z,35.55
2024-03-12T04:15:36.952Z,43.30
2024-03-12T04:16:39.614Z,54.30
2024-03-12T04:17:42.053Z,61.00
2024-03-12T04:18:44.489Z,51.80
2024-03-12T04:19:46.883Z,38.10
2024-03-12T04:20:49.436Z,38.00
2024-03-12T04:21:51.929Z,34.40
2024-03-12T04:22:54.178Z,18.40
2024-03-12T04:23:56.668Z,32.90
2024-03-12T04:24:59.047Z,36.80
2024-03-12T04:26:01.457Z,31.90
2024-03-12T04:27:03.816Z,36.10
2024-03-12T04:28:06.521Z,38.60
2024-03-12T04:29:08.941Z,34.00
2024-03-12T04:30:12.776Z,35.00
2024-03-12T04:31:15.502Z,31.30
2024-03-12T04:32:18.096Z,40.80
2024-03-12T04:33:20.359Z,33.00
2024-03-12T04:34:22.815Z,29.40
2024-03-12T04:35:25.168Z,27.80
2024-03-12T04:36:27.833Z,30.50
2024-03-12T04:37:30.225Z,28.90
2024-03-12T04:38:33.380Z,28.00
2024-03-12T04:39:37.705Z,28.64
2024-03-12T04:40:40.776Z,16.90
2024-03-12T04:41:43.233Z,47.30
2024-03-12T04:42:45.622Z,48.50
2024-03-12T04:43:48.882Z,58.50
2024-03-12T04:44:51.650Z,56.50
2024-03-12T04:45:54.344Z,38.60
2024-03-12T04:46:56.595Z,36.10
2024-03-12T04:47:59.200Z,35.50
2024-03-12T04:49:01.666Z,34.40
2024-03-12T04:50:04.600Z,32.10
2024-03-12T04:51:07.058Z,27.90
2024-03-12T04:52:09.440Z,34.40
2024-03-12T04:53:11.899Z,34.60
2024-03-12T04:54:14.156Z,33.60
2024-03-12T04:55:16.848Z,34.10
2024-03-12T04:56:19.584Z,33.36
2024-03-12T04:57:21.951Z,31.20
2024-03-12T04:58:24.616Z,35.50
2024-03-12T04:59:27.097Z,35.40
2024-03-12T05:00:32.659Z,35.90
2024-03-12T05:01:35.910Z,35.10
2024-03-12T05:02:38.367Z,39.60
2024-03-12T05:03:40.964Z,39.50
2024-03-12T05:04:43.370Z,42.10
2024-03-12T05:05:45.955Z,32.30
2024-03-12T05:06:48.671Z,29.50
2024-03-12T05:07:52.041Z,31.20
2024-03-12T05:08:54.497Z,29.80
2024-03-12T05:09:57.011Z,27.00
2024-03-12T05:11:02.237Z,24.30
2024-03-12T05:12:04.444Z,30.90
2024-03-12T05:13:06.991Z,35.30
2024-03-12T05:14:09.464Z,28.90
2024-03-12T05:15:12.042Z,27.40
2024-03-12T05:16:15.583Z,30.00
2024-03-12T05:17:18.342Z,28.00
2024-03-12T05:18:21.259Z,28.60
2024-03-12T05:19:23.546Z,32.50
2024-03-12T05:20:26.202Z,22.30
2024-03-12T05:21:31.521Z,30.00
2024-03-12T05:22:33.599Z,31.40
2024-03-12T05:23:36.067Z,31.50
2024-03-12T05:24:38.341Z,30.30
2024-03-12T05:25:41.454Z,29.30
2024-03-12T05:26:46.951Z,30.20
2024-03-12T05:27:53.021Z,31.80
2024-03-12T05:28:57.416Z,31.70
2024-03-12T05:30:00.597Z,25.90
2024-03-12T05:31:04.049Z,30.00
2024-03-12T05:32:08.951Z,27.40
2024-03-12T05:33:12.973Z,26.70
2024-03-12T05:34:17.251Z,31.60
2024-03-12T05:35:21.206Z,26.70
2024-03-12T05:36:24.426Z,28.40
2024-03-12T05:37:27.682Z,29.00
2024-03-12T05:38:30.811Z,27.55
2024-03-12T05:39:34.890Z,23.40
2024-03-12T05:40:38.653Z,30.80
2024-03-12T05:41:42.028Z,30.30
2024-03-12T05:42:46.503Z,29.60
2024-03-12T05:43:51.509Z,25.60
2024-03-12T05:44:55.881Z,26.40
2024-03-12T05:45:59.578Z,29.60
2024-03-12T05:47:02.702Z,32.20
2024-03-12T05:48:06.172Z,27.36
2024-03-12T05:49:08.664Z,28.00
2024-03-12T05:50:12.038Z,31.30
2024-03-12T05:51:14.314Z,33.30
2024-03-12T05:52:16.734Z,37.40
2024-03-12T05:53:19.171Z,30.90
2024-03-12T05:54:21.541Z,31.00
2024-03-12T05:55:25.995Z,35.80
2024-03-12T05:56:28.823Z,33.09
2024-03-12T05:57:31.185Z,32.30
2024-03-12T05:58:33.852Z,32.70
2024-03-12T05:59:36.524Z,38.60
2024-03-12T06:00:39.116Z,34.40
2024-03-12T06:01:42.299Z,30.70
2024-03-12T06:02:44.830Z,38.30
2024-03-12T06:03:47.564Z,37.10
2024-03-12T06:04:50.179Z,34.20
2024-03-12T06:05:52.879Z,32.50
2024-03-12T06:06:56.123Z,32.00
2024-03-12T06:07:59.219Z,34.50
2024-03-12T06:09:01.815Z,30.60
2024-03-12T06:10:07.596Z,32.20
2024-03-12T06:11:10.942Z,31.80
2024-03-12T06:12:15.227Z,33.30
2024-03-12T06:13:19.413Z,35.60
2024-03-12T06:14:24.097Z,29.10
2024-03-12T06:15:28.176Z,30.20
2024-03-12T06:16:31.568Z,32.00
2024-03-12T06:17:35.047Z,30.70
2024-03-12T06:18:38.228Z,33.40
2024-03-12T06:19:40.654Z,34.40
2024-03-12T06:20:43.383Z,30.50
2024-03-12T06:21:45.849Z,35.10
2024-03-12T06:22:48.349Z,39.30
2024-03-12T06:23:50.940Z,47.60
2024-03-12T06:25:01.565Z,54.00
2024-03-12T06:26:04.957Z,43.40
2024-03-12T06:27:08.054Z,38.30
2024-03-12T06:28:11.291Z,35.60
2024-03-12T06:29:14.027Z,36.30
2024-03-12T06:30:17.916Z,37.80
2024-03-12T06:31:20.494Z,34.00
2024-03-12T06:32:22.949Z,41.40
2024-03-12T06:33:25.460Z,49.30
2024-03-12T06:34:27.957Z,39.90
2024-03-12T06:35:30.558Z,39.40
2024-03-12T06:36:32.991Z,39.10
2024-03-12T06:37:35.245Z,43.90
2024-03-12T06:38:37.565Z,37.90
2024-03-12T06:39:39.915Z,34.60
2024-03-12T06:40:42.858Z,36.60
2024-03-12T06:41:45.064Z,36.80
2024-03-12T06:42:47.769Z,36.70
2024-03-12T06:43:50.250Z,34.10
2024-03-12T06:44:52.699Z,33.20
2024-03-12T06:45:55.113Z,36.00
2024-03-12T06:46:57.644Z,36.60
2024-03-12T06:48:00.124Z,40.40
2024-03-12T06:49:02.561Z,42.70
2024-03-12T06:50:08.829Z,40.70
2024-03-12T06:51:11.546Z,39.60
2024-03-12T06:52:15.406Z,42.30
2024-03-12T06:53:17.979Z,48.90
2024-03-12T06:54:20.417Z,55.10
2024-03-12T06:55:25.192Z,44.10
2024-03-12T06:56:27.924Z,46.10
2024-03-12T06:57:30.348Z,51.70
2024-03-12T06:58:32.482Z,57.80
2024-03-12T06:59:35.379Z,49.70
2024-03-12T07:00:38.847Z,40.40
2024-03-12T07:01:42.254Z,26.50
2024-03-12T07:02:45.286Z,60.60
2024-03-12T07:03:49.837Z,58.70
2024-03-12T07:04:52.269Z,60.20
2024-03-12T07:05:56.179Z,65.90
2024-03-12T07:06:59.939Z,81.80
2024-03-12T07:08:05.374Z,80.30
2024-03-12T07:09:14.604Z,57.10
2024-03-12T07:10:16.832Z,50.10
2024-03-12T07:11:19.361Z,50.20
2024-03-12T07:12:21.872Z,51.70
2024-03-12T07:13:24.914Z,50.30
2024-03-12T07:14:27.533Z,44.40
2024-03-12T07:15:31.138Z,54.40
2024-03-12T07:16:33.680Z,58.30
2024-03-12T07:17:36.129Z,54.80
2024-03-12T07:18:38.649Z,49.40
2024-03-12T07:19:41.090Z,56.10
2024-03-12T07:20:43.604Z,54.10
2024-03-12T07:21:46.212Z,50.20
2024-03-12T07:22:49.392Z,46.60
2024-03-12T07:23:51.715Z,47.80
2024-03-12T07:24:54.111Z,47.70
2024-03-12T07:25:56.392Z,48.10
2024-03-12T07:27:02.093Z,42.90
2024-03-12T07:28:05.048Z,43.90
2024-03-12T07:29:07.723Z,46.80
2024-03-12T07:30:11.141Z,45.40
2024-03-12T07:31:13.890Z,48.70
2024-03-12T07:32:16.362Z,33.00
2024-03-12T07:33:18.646Z,40.20
2024-03-12T07:34:21.157Z,48.00
2024-03-12T07:35:24.057Z,45.40
2024-03-12T07:36:28.846Z,37.60
2024-03-12T07:37:36.142Z,43.00
2024-03-12T07:38:39.406Z,38.10
2024-03-12T07:39:41.961Z,34.80
2024-03-12T07:40:45.436Z,46.30
2024-03-12T07:41:48.524Z,50.80
2024-03-12T07:42:51.291Z,50.60
2024-03-12T07:43:53.648Z,52.10
2024-03-12T07:44:56.093Z,54.10
2024-03-12T07:45:58.467Z,41.60
2024-03-12T07:47:01.154Z,45.90
2024-03-12T07:48:04.264Z,54.40
2024-03-12T07:49:08.285Z,48.64
2024-03-12T07:50:12.835Z,46.10
2024-03-12T07:51:15.405Z,46.80
2024-03-12T07:52:17.945Z,52.30
2024-03-12T07:53:20.420Z,43.60
2024-03-12T07:54:22.806Z,53.70
2024-03-12T07:55:27.073Z,43.20
2024-03-12T07:56:30.471Z,48.60
2024-03-12T07:57:33.525Z,48.73
2024-03-12T07:58:36.121Z,52.73
2024-03-12T07:59:38.747Z,47.90
2024-03-12T08:00:41.263Z,51.10
2024-03-12T08:01:44.382Z,53.50
2024-03-12T08:02:46.903Z,58.09
2024-03-12T08:03:49.322Z,55.60
2024-03-12T08:04:51.936Z,57.40
2024-03-12T08:05:54.207Z,55.30
2024-03-12T08:06:56.888Z,54.00
2024-03-12T08:07:59.339Z,54.10
2024-03-12T08:09:01.760Z,54.50
2024-03-12T08:10:06.193Z,52.50
2024-03-12T08:11:08.550Z,51.30
2024-03-12T08:12:12.876Z,52.90
2024-03-12T08:13:16.973Z,49.90
2024-03-12T08:14:19.667Z,52.20
2024-03-12T08:15:22.007Z,49.20
2024-03-12T08:16:24.640Z,51.50
2024-03-12T08:17:26.933Z,49.40
2024-03-12T08:18:29.871Z,45.70
2024-03-12T08:19:33.625Z,44.82
2024-03-12T08:20:36.700Z,48.40
2024-03-12T08:21:39.803Z,50.50
2024-03-12T08:22:42.142Z,49.90
2024-03-12T08:23:44.789Z,36.40
2024-03-12T08:24:47.439Z,43.30
2024-03-12T08:25:56.422Z,51.40
2024-03-12T08:26:54.248Z,44.30
2024-03-12T08:27:56.660Z,48.20
2024-03-12T08:28:59.292Z,45.90
2024-03-12T08:30:01.692Z,50.80
2024-03-12T08:31:11.017Z,49.20
2024-03-12T08:32:08.600Z,44.00
2024-03-12T08:33:11.115Z,47.90
2024-03-12T08:34:13.829Z,45.00
2024-03-12T08:35:16.837Z,48.60
2024-03-12T08:36:19.602Z,46.10
2024-03-12T08:37:22.256Z,42.60
2024-03-12T08:38:25.094Z,44.30
2024-03-12T08:39:28.614Z,41.18
2024-03-12T08:40:32.122Z,46.40
2024-03-12T08:41:34.793Z,42.90
2024-03-12T08:42:44.890Z,44.40
2024-03-12T08:43:41.922Z,53.40
2024-03-12T08:44:44.346Z,38.90
2024-03-12T08:45:46.834Z,49.00
2024-03-12T08:46:49.465Z,47.70
2024-03-12T08:47:51.759Z,46.90
2024-03-12T08:48:54.282Z,52.60
2024-03-12T08:49:56.751Z,51.60
2024-03-12T08:50:59.844Z,46.60
2024-03-12T08:52:02.448Z,50.36
2024-03-12T08:53:04.981Z,49.30
2024-03-12T08:54:09.301Z,43.40
2024-03-12T08:55:11.778Z,45.20
2024-03-12T08:56:14.553Z,39.30
2024-03-12T08:57:17.183Z,53.00
2024-03-12T08:58:19.555Z,53.30
2024-03-12T08:59:22.187Z,55.80
2024-03-12T09:00:24.785Z,46.80
2024-03-12T09:01:27.624Z,54.50
2024-03-12T09:02:30.462Z,52.70
2024-03-12T09:03:33.417Z,51.20
2024-03-12T09:04:37.475Z,52.36
2024-03-12T09:05:40.073Z,51.30
2024-03-12T09:06:42.753Z,49.10
2024-03-12T09:07:45.217Z,54.10
2024-03-12T09:08:47.674Z,54.20
2024-03-12T09:09:52.511Z,53.20
2024-03-12T09:10:54.719Z,52.70
2024-03-12T09:11:57.403Z,52.70
2024-03-12T09:13:00.970Z,52.30
2024-03-12T09:14:04.472Z,49.90
2024-03-12T09:15:07.888Z,53.80
2024-03-12T09:16:11.055Z,54.30
2024-03-12T09:17:13.740Z,61.00
2024-03-12T09:18:16.436Z,79.50
2024-03-12T09:19:18.985Z,80.20
2024-03-12T09:20:22.165Z,58.50
2024-03-12T09:21:24.727Z,57.10
2024-03-12T09:22:27.105Z,51.80
2024-03-12T09:23:29.617Z,57.60
2024-03-12T09:24:32.056Z,60.30
2024-03-12T09:25:34.404Z,57.80
2024-03-12T09:26:37.274Z,57.50
2024-03-12T09:27:39.975Z,53.50
2024-03-12T09:28:43.097Z,52.20
2024-03-12T09:29:45.574Z,51.10
2024-03-12T09:30:48.283Z,51.50
2024-03-12T09:31:50.919Z,50.70
2024-03-12T09:32:54.878Z,49.80
2024-03-12T09:33:57.869Z,51.60
2024-03-12T09:35:00.922Z,51.70
2024-03-12T09:36:04.367Z,52.70
2024-03-12T09:37:08.289Z,49.90
2024-03-12T09:38:11.544Z,52.50
2024-03-12T09:39:13.903Z,60.80
2024-03-12T09:40:16.802Z,63.60
2024-03-12T09:41:21.290Z,63.00
2024-03-12T09:42:25.522Z,53.90
2024-03-12T09:43:30.927Z,54.00
2024-03-12T09:44:39.044Z,51.60
2024-03-12T09:45:41.848Z,50.60
2024-03-12T09:46:44.627Z,51.45
2024-03-12T09:47:47.040Z,55.60
2024-03-12T09:48:51.130Z,50.50
2024-03-12T09:49:53.897Z,48.70
2024-03-12T09:50:58.520Z,48.90
2024-03-12T09:52:02.244Z,46.90
2024-03-12T09:53:04.772Z,50.30
2024-03-12T09:54:07.342Z,60.70
2024-03-12T09:55:10.926Z,61.30
2024-03-12T09:56:14.285Z,61.40
2024-03-12T09:57:17.528Z,58.60
2024-03-12T09:58:20.418Z,54.50
2024-03-12T09:59:23.161Z,51.60
2024-03-12T10:00:26.259Z,49.09
2024-03-12T10:01:49.217Z,52.30
2024-03-12T10:02:52.361Z,51.40
2024-03-12T10:03:55.237Z,54.70
2024-03-12T10:04:57.761Z,49.20
2024-03-12T10:06:00.196Z,50.70
2024-03-12T10:07:02.667Z,48.70
2024-03-12T10:08:11.032Z,47.00
2024-03-12T10:09:13.402Z,50.40
2024-03-12T10:10:17.760Z,52.40
2024-03-12T10:11:20.896Z,53.90
2024-03-12T10:12:23.446Z,54.00
2024-03-12T10:13:25.916Z,51.20
2024-03-12T10:14:28.896Z,52.80
2024-03-12T10:15:32.063Z,52.10
2024-03-12T10:16:34.657Z,54.30
2024-03-12T10:17:37.250Z,45.70
2024-03-12T10:18:39.728Z,54.10
2024-03-12T10:19:47.031Z,51.60
2024-03-12T10:20:51.780Z,53.50
2024-03-12T10:21:54.300Z,54.70
2024-03-12T10:23:07.136Z,50.50
2024-03-12T10:24:12.271Z,49.60
2024-03-12T10:25:14.685Z,50.20
2024-03-12T10:26:17.944Z,55.10
2024-03-12T10:27:20.692Z,58.50
2024-03-12T10:28:24.451Z,51.50
2024-03-12T10:29:30.387Z,52.30
2024-03-12T10:30:32.951Z,53.00
2024-03-12T10:31:35.669Z,52.40
2024-03-12T10:32:38.152Z,53.60
2024-03-12T10:33:45.194Z,55.80
2024-03-12T10:34:48.478Z,56.00
2024-03-12T10:35:50.948Z,54.70
2024-03-12T10:36:53.361Z,57.40
2024-03-12T10:37:55.981Z,47.10
2024-03-12T10:38:59.675Z,51.80
2024-03-12T10:40:15.166Z,54.30
2024-03-12T10:41:19.272Z,55.40
2024-03-12T10:42:24.818Z,48.40
2024-03-12T10:43:27.311Z,54.60
2024-03-12T10:44:32.569Z,52.10
2024-03-12T10:45:35.916Z,51.90
2024-03-12T10:47:49.826Z,53.70
2024-03-12T10:48:55.515Z,37.80
2024-03-12T10:49:59.141Z,74.10
2024-03-12T10:51:02.379Z,69.00
2024-03-12T10:52:05.719Z,60.18
2024-03-12T10:53:10.729Z,62.10
2024-03-12T10:54:16.820Z,83.00
2024-03-12T10:55:22.521Z,97.30
2024-03-12T10:56:25.188Z,107.70
2024-03-12T10:57:29.322Z,85.00
2024-03-12T10:58:33.924Z,77.90
2024-03-12T10:59:36.990Z,101.50
2024-03-12T11:00:39.790Z,82.20
2024-03-12T11:02:55.763Z,72.90
2024-03-12T11:04:00.273Z,56.40
2024-03-12T11:05:03.041Z,54.30
2024-03-12T11:06:07.707Z,67.30
2024-03-12T11:07:10.720Z,70.40
2024-03-12T11:08:14.183Z,65.60
2024-03-12T11:09:16.686Z,71.80
2024-03-12T11:10:20.396Z,84.91
2024-03-12T11:11:23.787Z,75.10
2024-03-12T11:12:26.944Z,95.60
2024-03-12T11:13:29.358Z,74.90
2024-03-12T11:14:32.175Z,64.20
2024-03-12T11:15:36.130Z,53.00
2024-03-12T11:16:38.961Z,49.70
2024-03-12T11:17:49.174Z,46.90
2024-03-12T11:18:52.328Z,48.40
2024-03-12T11:20:02.867Z,44.55
2024-03-12T11:21:04.537Z,43.60
2024-03-12T11:22:11.734Z,49.70
2024-03-12T11:23:14.775Z,50.90
2024-03-12T11:24:27.867Z,48.80
2024-03-12T11:26:51.959Z,34.80
2024-03-12T11:28:16.842Z,40.40
2024-03-12T11:29:19.388Z,42.40
2024-03-12T11:30:25.947Z,45.73
2024-03-12T11:31:39.685Z,43.90
2024-03-12T11:32:47.593Z,36.10
2024-03-12T11:33:51.507Z,38.20
2024-03-12T11:34:55.424Z,37.90
2024-03-12T11:35:59.760Z,40.60
2024-03-12T11:37:14.546Z,34.50
2024-03-12T11:38:18.841Z,33.60
2024-03-12T11:39:24.948Z,34.50
2024-03-12T11:40:32.674Z,30.80
2024-03-12T11:42:02.120Z,40.40
2024-03-12T11:43:04.961Z,45.10
2024-03-12T11:44:08.291Z,38.70
2024-03-12T11:45:32.115Z,30.80
2024-03-12T11:46:42.434Z,33.30
2024-03-12T11:47:58.270Z,29.10
2024-03-12T11:49:01.014Z,32.40
2024-03-12T11:50:05.320Z,33.90
2024-03-12T11:51:10.932Z,33.90
2024-03-12T11:52:17.036Z,36.00
2024-03-12T11:53:25.075Z,33.50
2024-03-12T11:56:12.573Z,35.10
2024-03-12T11:57:28.727Z,32.70
2024-03-12T11:58:34.228Z,31.20
2024-03-12T11:59:36.891Z,33.70
2024-03-12T12:00:40.120Z,37.00
2024-03-12T12:01:43.588Z,34.90
2024-03-12T12:02:46.762Z,46.18
2024-03-12T12:04:01.989Z,42.30
2024-03-12T12:05:05.328Z,48.10
2024-03-12T12:06:09.359Z,44.00
2024-03-12T12:07:15.341Z,33.20
2024-03-12T12:08:19.327Z,36.80
2024-03-12T12:09:21.919Z,36.50
2024-03-12T12:10:25.213Z,33.40
2024-03-12T12:11:28.207Z,37.80
2024-03-12T12:12:31.235Z,33.73
2024-03-12T12:13:34.001Z,35.55
2024-03-12T12:14:37.102Z,33.20
2024-03-12T12:15:39.604Z,26.90
2024-03-12T12:16:42.250Z,36.60
2024-03-12T12:17:44.760Z,34.80
2024-03-12T12:18:47.086Z,35.20
2024-03-12T12:20:06.332Z,37.90
2024-03-12T12:21:15.780Z,35.20
2024-03-12T12:22:18.304Z,39.40
2024-03-12T12:23:21.146Z,37.80
2024-03-12T12:24:24.755Z,38.50
2024-03-12T12:25:28.950Z,32.90
2024-03-12T12:26:32.167Z,14.20
2024-03-12T12:27:35.151Z,26.50
2024-03-12T12:28:37.476Z,28.73
2024-03-12T12:29:39.933Z,31.10
2024-03-12T12:30:43.787Z,28.50
2024-03-12T12:31:46.884Z,31.50
2024-03-12T12:32:51.597Z,31.27
2024-03-12T12:33:55.141Z,26.60
2024-03-12T12:34:59.874Z,28.33
2024-03-12T12:36:09.541Z,26.50
2024-03-12T12:37:12.200Z,32.60
2024-03-12T12:38:15.370Z,33.10
2024-03-12T12:39:18.079Z,32.30
2024-03-12T12:40:21.767Z,27.00
2024-03-12T12:41:24.596Z,28.50
2024-03-12T12:42:27.160Z,33.30
2024-03-12T12:43:34.357Z,35.00
2024-03-12T12:44:36.814Z,33.60
2024-03-12T12:45:39.618Z,31.50
2024-03-12T12:46:43.134Z,31.00
2024-03-12T12:47:48.765Z,31.30
2024-03-12T12:48:51.507Z,36.50
2024-03-12T12:49:54.006Z,33.00
2024-03-12T12:50:57.646Z,36.00
2024-03-12T12:52:00.118Z,33.80
2024-03-12T12:53:03.440Z,32.60
2024-03-12T12:54:06.056Z,34.20
2024-03-12T12:55:09.116Z,61.70
2024-03-12T12:56:11.806Z,77.00
2024-03-12T12:57:14.382Z,80.80
2024-03-12T12:58:20.434Z,72.40
2024-03-12T12:59:23.112Z,66.80
2024-03-12T13:00:25.774Z,65.90
2024-03-12T13:01:28.865Z,73.20
2024-03-12T13:02:31.282Z,65.50
2024-03-12T13:04:44.961Z,53.20
2024-03-12T13:05:48.021Z,47.27
2024-03-12T13:06:55.173Z,49.45
2024-03-12T13:07:58.994Z,53.70
2024-03-12T13:09:01.573Z,50.18
2024-03-12T13:10:11.356Z,32.80
2024-03-12T13:11:17.466Z,38.40
2024-03-12T13:12:20.064Z,39.90
2024-03-12T13:13:22.728Z,36.80
2024-03-12T13:14:25.247Z,35.70
2024-03-12T13:15:29.826Z,32.90
2024-03-12T13:16:32.530Z,28.10
2024-03-12T13:17:35.038Z,35.10
2024-03-12T13:18:39.920Z,43.00
2024-03-12T13:19:43.018Z,38.90
2024-03-12T13:20:49.951Z,33.70
2024-03-12T13:21:52.585Z,35.80
2024-03-12T13:22:55.276Z,40.82
2024-03-12T13:23:58.236Z,41.60
2024-03-12T13:25:00.596Z,38.80
2024-03-12T13:26:04.290Z,42.40
2024-03-12T13:27:06.525Z,41.00
2024-03-12T13:28:08.963Z,42.20
2024-03-12T13:29:11.540Z,45.30
2024-03-12T13:30:14.981Z,42.50
2024-03-12T13:31:17.892Z,38.10
2024-03-12T13:32:20.682Z,39.40
2024-03-12T13:33:23.537Z,44.50
2024-03-12T13:34:29.359Z,45.30
2024-03-12T13:35:32.702Z,41.40
2024-03-12T13:36:35.369Z,49.90
2024-03-12T13:37:40.544Z,43.90
2024-03-12T13:38:43.346Z,42.20
2024-03-12T13:39:45.750Z,45.10
2024-03-12T13:40:48.269Z,49.00
2024-03-12T13:41:50.595Z,46.20
2024-03-12T13:42:56.382Z,45.20
2024-03-12T13:43:59.759Z,48.40
2024-03-12T13:45:02.200Z,44.20
2024-03-12T13:46:05.528Z,43.40
2024-03-12T13:47:08.233Z,54.40
2024-03-12T13:48:11.081Z,95.90